createdAt,value
2018-03-04T00:01:33.159Z,2.30
2018-03-04T00:03:59.595Z,2.30
2018-03-04T00:06:25.951Z,2.30
2018-03-04T00:08:52.322Z,2.40
2018-03-04T00:11:18.687Z,2.30
2018-03-04T00:13:45.047Z,2.40
2018-03-04T00:16:11.430Z,2.50
2018-03-04T00:18:38.527Z,2.60
2018-03-04T00:21:04.916Z,2.60
2018-03-04T00:23:32.031Z,2.60
2018-03-04T00:25:58.391Z,2.60
2018-03-04T00:28:25.497Z,2.70
2018-03-04T00:30:51.859Z,2.70
2018-03-04T00:33:18.982Z,2.70
2018-03-04T00:35:45.405Z,2.70
2018-03-04T00:38:11.800Z,2.80
2018-03-04T00:40:38.175Z,2.80
2018-03-04T00:43:05.554Z,2.80
2018-03-04T00:45:31.943Z,2.80
2018-03-04T00:47:58.388Z,2.80
2018-03-04T00:50:24.787Z,2.80
2018-03-04T00:52:51.149Z,2.70
2018-03-04T00:55:17.531Z,2.80
2018-03-04T00:57:44.629Z,2.80
2018-03-04T01:00:11.012Z,2.70
2018-03-04T01:02:38.109Z,2.80
2018-03-04T01:05:04.619Z,2.80
2018-03-04T01:07:31.089Z,2.80
2018-03-04T01:09:57.459Z,2.80
2018-03-04T01:12:24.780Z,2.70
2018-03-04T01:14:52.147Z,2.70
2018-03-04T01:17:18.518Z,2.70
2018-03-04T01:19:44.902Z,2.80
2018-03-04T01:22:11.322Z,2.60
2018-03-04T01:24:37.702Z,2.60
2018-03-04T01:27:04.897Z,2.50
2018-03-04T01:29:31.286Z,2.50
2018-03-04T01:31:59.435Z,2.40
2018-03-04T01:34:27.043Z,2.40
2018-03-04T01:36:53.371Z,2.40
2018-03-04T01:39:20.419Z,2.20
2018-03-04T01:41:46.746Z,2.10
2018-03-04T01:44:13.810Z,2.10
2018-03-04T01:46:40.128Z,2.10
2018-03-04T01:49:06.446Z,2.10
2018-03-04T01:51:45.922Z,2.10
2018-03-04T01:54:12.243Z,2.00
2018-03-04T01:56:38.555Z,2.00
2018-03-04T01:59:06.630Z,1.80
2018-03-04T02:01:33.684Z,1.80
2018-03-04T02:04:00.013Z,1.80
2018-03-04T02:06:26.342Z,1.80
2018-03-04T02:08:52.695Z,1.70
2018-03-04T02:11:19.013Z,1.70
2018-03-04T02:13:45.361Z,1.70
2018-03-04T02:16:11.694Z,1.60
2018-03-04T02:18:38.018Z,1.60
2018-03-04T02:21:04.318Z,1.60
2018-03-04T02:23:31.370Z,1.40
2018-03-04T02:25:58.418Z,1.30
2018-03-04T02:28:25.500Z,1.20
2018-03-04T02:30:51.843Z,1.20
2018-03-04T02:33:18.189Z,1.20
2018-03-04T02:35:44.523Z,1.10
2018-03-04T02:38:10.837Z,1.20
2018-03-04T02:40:38.194Z,1.30
2018-03-04T02:43:04.508Z,1.30
2018-03-04T02:45:30.831Z,1.30
2018-03-04T02:47:57.139Z,1.30
2018-03-04T02:50:23.458Z,1.40
2018-03-04T02:52:50.507Z,1.30
2018-03-04T02:55:17.563Z,1.30
2018-03-04T02:57:43.887Z,1.30
2018-03-04T03:00:10.962Z,1.20
2018-03-04T03:02:37.287Z,1.20
2018-03-04T03:05:03.664Z,1.30
2018-03-04T03:07:30.035Z,1.20
2018-03-04T03:09:56.349Z,1.20
2018-03-04T03:12:23.406Z,1.20
2018-03-04T03:14:50.486Z,1.20
2018-03-04T03:17:16.801Z,1.20
2018-03-04T03:19:43.106Z,1.20
2018-03-04T03:22:11.139Z,1.40
2018-03-04T03:24:37.445Z,1.40
2018-03-04T03:27:03.788Z,1.50
2018-03-04T03:29:30.097Z,1.40
2018-03-04T03:31:56.585Z,1.50
2018-03-04T03:34:22.906Z,1.60
2018-03-04T03:36:49.950Z,1.70
2018-03-04T03:39:16.258Z,1.70
2018-03-04T03:41:42.590Z,1.80
2018-03-04T03:44:08.910Z,1.90
2018-03-04T03:46:35.211Z,2.00
2018-03-04T03:49:02.318Z,2.30
2018-03-04T03:51:28.646Z,2.30
2018-03-04T03:53:54.954Z,2.40
2018-03-04T03:56:21.259Z,2.50
2018-03-04T03:58:47.565Z,2.40
2018-03-04T04:01:14.614Z,2.40
2018-03-04T04:03:41.661Z,2.50
2018-03-04T04:06:08.718Z,2.60
2018-03-04T04:08:35.811Z,2.70
2018-03-04T04:11:02.128Z,2.70
2018-03-04T04:13:28.438Z,2.80
2018-03-04T04:15:55.481Z,3.10
2018-03-04T04:18:22.569Z,3.00
2018-03-04T04:20:49.899Z,3.00
2018-03-04T04:23:16.199Z,3.00
2018-03-04T04:25:43.267Z,2.80
2018-03-04T04:28:09.610Z,2.80
2018-03-04T04:30:35.948Z,2.80
2018-03-04T04:33:02.264Z,2.80
2018-03-04T04:35:29.582Z,2.70
2018-03-04T04:37:56.758Z,2.90
2018-03-04T04:40:23.835Z,3.10
2018-03-04T04:42:50.138Z,3.10
2018-03-04T04:45:18.205Z,3.40
2018-03-04T04:47:46.304Z,3.40
2018-03-04T04:50:12.620Z,3.40
2018-03-04T04:52:38.918Z,3.30
2018-03-04T04:55:05.236Z,3.10
2018-03-04T04:57:31.544Z,3.00
2018-03-04T04:59:57.865Z,2.90
2018-03-04T05:02:24.178Z,2.80
2018-03-04T05:04:50.506Z,2.70
2018-03-04T05:07:16.822Z,2.70
2018-03-04T05:09:43.878Z,2.60
2018-03-04T05:12:10.181Z,2.60
2018-03-04T05:14:36.493Z,2.60
2018-03-04T05:17:02.811Z,2.50
2018-03-04T05:19:29.124Z,2.40
2018-03-04T05:21:55.460Z,2.40
2018-03-04T05:24:21.765Z,2.30
2018-03-04T05:26:48.066Z,2.40
2018-03-04T05:29:14.389Z,2.30
2018-03-04T05:31:40.722Z,2.30
2018-03-04T05:34:07.040Z,2.20
2018-03-04T05:36:33.350Z,2.10
2018-03-04T05:39:02.271Z,2.00
2018-03-04T05:41:29.589Z,2.00
2018-03-04T05:43:55.898Z,2.10
2018-03-04T05:46:22.229Z,2.10
2018-03-04T05:48:48.531Z,2.10
2018-03-04T05:51:15.583Z,2.10
2018-03-04T05:53:42.651Z,2.10
2018-03-04T05:56:08.959Z,2.20
2018-03-04T05:58:36.023Z,2.30
2018-03-04T06:01:05.000Z,2.30
2018-03-04T06:03:31.579Z,2.20
2018-03-04T06:06:05.480Z,2.20
2018-03-04T06:08:32.116Z,2.20
2018-03-04T06:11:01.352Z,2.20
2018-03-04T06:13:28.426Z,2.20
2018-03-04T06:15:55.461Z,2.30
2018-03-04T06:18:23.252Z,2.20
2018-03-04T06:20:50.838Z,2.30
2018-03-04T06:23:17.212Z,2.30
2018-03-04T06:25:44.299Z,2.20
2018-03-04T06:28:10.619Z,2.20
2018-03-04T06:30:41.670Z,2.20
2018-03-04T06:33:09.321Z,2.30
2018-03-04T06:35:36.371Z,2.40
2018-03-04T06:38:07.954Z,2.50
2018-03-04T06:40:38.259Z,2.40
2018-03-04T06:43:04.611Z,2.50
2018-03-04T06:45:31.909Z,2.60
2018-03-04T06:47:59.230Z,2.70
2018-03-04T06:50:25.727Z,2.80
2018-03-04T06:52:52.039Z,2.80
2018-03-04T06:55:19.098Z,3.10
2018-03-04T06:57:46.148Z,3.30
2018-03-04T07:00:13.199Z,3.40
2018-03-04T07:02:39.724Z,3.30
2018-03-04T07:05:06.799Z,3.40
2018-03-04T07:07:33.138Z,3.30
2018-03-04T07:09:59.444Z,3.40
2018-03-04T07:12:27.546Z,3.60
2018-03-04T07:14:53.851Z,3.60
2018-03-04T07:17:20.174Z,3.60
2018-03-04T07:19:48.324Z,3.90
2018-03-04T07:22:15.419Z,4.10
2018-03-04T07:24:41.737Z,4.00
2018-03-04T07:27:08.244Z,4.20
2018-03-04T07:29:35.381Z,4.40
2018-03-04T07:32:01.732Z,4.40
2018-03-04T07:34:28.798Z,4.80
2018-03-04T07:36:55.112Z,4.70
2018-03-04T07:39:22.167Z,5.00
2018-03-04T07:41:49.222Z,5.20
2018-03-04T07:44:15.546Z,5.20
2018-03-04T07:46:42.596Z,5.60
2018-03-04T07:49:08.924Z,5.50
2018-03-04T07:51:35.979Z,5.90
2018-03-04T07:54:02.284Z,5.90
2018-03-04T07:56:28.596Z,5.90
2018-03-04T07:58:54.906Z,6.00
2018-03-04T08:01:21.229Z,6.00
2018-03-04T08:03:47.571Z,6.10
2018-03-04T08:06:13.898Z,6.30
2018-03-04T08:08:40.206Z,6.30
2018-03-04T08:11:06.518Z,6.40
2018-03-04T08:13:33.558Z,6.50
2018-03-04T08:16:00.742Z,6.50
2018-03-04T08:18:27.059Z,6.50
2018-03-04T08:20:53.370Z,6.60
2018-03-04T08:23:20.449Z,6.80
2018-03-04T08:25:46.750Z,6.80
2018-03-04T08:28:26.019Z,7.20
2018-03-04T08:30:52.346Z,7.10
2018-03-04T08:33:18.659Z,7.40
2018-03-04T08:35:44.992Z,7.50
2018-03-04T08:38:11.302Z,7.70
2018-03-04T08:40:38.364Z,8.00
2018-03-04T08:43:04.683Z,8.00
2018-03-04T08:45:31.754Z,8.50
2018-03-04T08:47:58.075Z,8.50
2018-03-04T08:50:24.400Z,8.70
2018-03-04T08:52:50.719Z,8.80
2018-03-04T08:55:17.788Z,9.10
2018-03-04T08:57:44.170Z,9.10
2018-03-04T09:00:10.502Z,9.10
2018-03-04T09:02:36.819Z,9.10
2018-03-04T09:05:04.166Z,9.40
2018-03-04T09:07:30.486Z,9.60
2018-03-04T09:09:56.822Z,10.00
2018-03-04T09:12:23.145Z,10.30
2018-03-04T09:14:49.496Z,10.50
2018-03-04T09:17:16.798Z,10.60
2018-03-04T09:19:43.161Z,10.40
2018-03-04T09:22:09.443Z,10.60
2018-03-04T09:24:36.508Z,11.00
2018-03-04T09:27:02.856Z,11.00
2018-03-04T09:29:29.179Z,11.10
2018-03-04T09:31:55.477Z,11.00
2018-03-04T09:34:21.796Z,11.10
2018-03-04T09:36:49.112Z,11.10
2018-03-04T09:39:15.439Z,11.30
2018-03-04T09:41:41.754Z,11.40
2018-03-04T09:44:08.074Z,11.50
2018-03-04T09:46:35.120Z,11.70
2018-03-04T09:49:03.160Z,11.70
2018-03-04T09:51:29.486Z,11.60
2018-03-04T09:53:55.800Z,11.60
2018-03-04T09:56:22.126Z,11.70
2018-03-04T09:58:48.440Z,11.80
2018-03-04T10:01:15.771Z,11.90
2018-03-04T10:03:42.094Z,12.00
2018-03-04T10:06:08.402Z,12.10
2018-03-04T10:08:34.742Z,12.00
2018-03-04T10:11:01.072Z,11.90
2018-03-04T10:13:27.374Z,12.00
2018-03-04T10:15:54.470Z,12.20
2018-03-04T10:18:21.550Z,12.10
2018-03-04T10:20:47.860Z,12.00
2018-03-04T10:23:14.185Z,12.10
2018-03-04T10:25:40.518Z,12.00
2018-03-04T10:28:06.829Z,12.00
2018-03-04T10:30:33.166Z,12.00
2018-03-04T10:32:59.490Z,12.10
2018-03-04T10:35:25.800Z,12.10
2018-03-04T10:37:52.118Z,12.10
2018-03-04T10:40:19.161Z,12.20
2018-03-04T10:42:46.206Z,12.10
2018-03-04T10:45:14.297Z,12.00
2018-03-04T10:47:40.612Z,11.90
2018-03-04T10:50:06.939Z,12.10
2018-03-04T10:52:34.443Z,12.30
2018-03-04T10:55:00.782Z,12.20
2018-03-04T10:57:27.096Z,12.40
2018-03-04T10:59:53.496Z,12.50
2018-03-04T11:02:22.652Z,12.40
2018-03-04T11:04:49.005Z,12.30
2018-03-04T11:07:16.099Z,12.40
2018-03-04T11:09:42.508Z,12.40
2018-03-04T11:12:08.790Z,12.30
2018-03-04T11:14:35.107Z,12.30
2018-03-04T11:17:01.415Z,12.30
2018-03-04T11:19:27.750Z,12.30
2018-03-04T11:21:54.059Z,12.30
2018-03-04T11:24:22.137Z,12.10
2018-03-04T11:26:48.444Z,12.10
2018-03-04T11:29:15.496Z,11.90
2018-03-04T11:31:43.563Z,11.80
2018-03-04T11:34:10.617Z,11.70
2018-03-04T11:36:37.707Z,11.80
2018-03-04T11:39:04.066Z,11.80
2018-03-04T11:41:30.414Z,11.90
2018-03-04T11:43:56.710Z,12.10
2018-03-04T11:46:23.264Z,12.30
2018-03-04T11:48:49.582Z,12.20
2018-03-04T11:51:15.910Z,12.10
2018-03-04T11:53:43.261Z,12.00
2018-03-04T11:56:09.592Z,12.00
2018-03-04T11:58:35.898Z,12.10
2018-03-04T12:01:02.245Z,12.10
2018-03-04T12:03:29.578Z,12.20
2018-03-04T12:05:56.072Z,12.50
2018-03-04T12:08:23.379Z,12.50
2018-03-04T12:10:49.697Z,12.50
2018-03-04T12:13:16.011Z,12.60
2018-03-04T12:15:43.074Z,12.70
2018-03-04T12:18:09.390Z,12.70
2018-03-04T12:20:36.451Z,12.90
2018-03-04T12:23:02.758Z,12.90
2018-03-04T12:25:29.847Z,12.80
2018-03-04T12:27:56.173Z,12.70
2018-03-04T12:30:22.491Z,12.60
2018-03-04T12:32:48.815Z,12.60
2018-03-04T12:35:15.146Z,12.50
2018-03-04T12:37:41.478Z,12.50
2018-03-04T12:40:07.795Z,12.50
2018-03-04T12:42:34.859Z,12.60
2018-03-04T12:45:02.215Z,12.60
2018-03-04T12:47:29.288Z,12.60
2018-03-04T12:49:55.595Z,12.50
2018-03-04T12:52:21.924Z,13.10
2018-03-04T12:54:48.246Z,13.60
2018-03-04T12:57:15.435Z,15.00
2018-03-04T12:59:41.799Z,15.00
2018-03-04T13:02:08.130Z,15.60
2018-03-04T13:04:35.473Z,16.40
2018-03-04T13:07:01.786Z,17.00
2018-03-04T13:09:29.134Z,17.50
2018-03-04T13:11:55.495Z,18.00
2018-03-04T13:14:22.920Z,18.00
2018-03-04T13:16:49.240Z,18.00
2018-03-04T13:19:15.633Z,18.30
2018-03-04T13:21:41.947Z,18.60
2018-03-04T13:24:09.014Z,19.00
2018-03-04T13:26:36.079Z,18.90
2018-03-04T13:29:03.123Z,18.90
2018-03-04T13:31:30.166Z,18.90
2018-03-04T13:33:57.240Z,19.10
2018-03-04T13:36:23.549Z,19.10
2018-03-04T13:38:50.595Z,19.40
2018-03-04T13:41:17.687Z,19.60
2018-03-04T13:43:44.006Z,19.60
2018-03-04T13:46:10.306Z,19.60
2018-03-04T13:48:37.350Z,20.00
2018-03-04T13:51:04.411Z,20.00
2018-03-04T13:53:30.735Z,19.90
2018-03-04T13:55:58.804Z,20.10
2018-03-04T13:58:25.855Z,20.10
2018-03-04T14:00:53.206Z,20.00
2018-03-04T14:03:20.285Z,19.90
2018-03-04T14:05:46.590Z,19.80
2018-03-04T14:08:13.638Z,19.60
2018-03-04T14:10:40.709Z,19.70
2018-03-04T14:13:07.011Z,19.70
2018-03-04T14:15:35.073Z,19.80
2018-03-04T14:18:02.158Z,20.00
2018-03-04T14:20:28.467Z,20.00
2018-03-04T14:22:54.770Z,19.90
2018-03-04T14:25:21.074Z,19.90
2018-03-04T14:27:47.403Z,19.90
2018-03-04T14:30:13.730Z,20.20
2018-03-04T14:32:40.040Z,20.90
2018-03-04T14:35:06.353Z,20.80
2018-03-04T14:37:32.662Z,20.50
2018-03-04T14:39:59.716Z,20.60
2018-03-04T14:42:28.553Z,20.60
2018-03-04T14:44:54.858Z,20.60
2018-03-04T14:47:21.222Z,20.70
2018-03-04T14:49:47.537Z,20.50
2018-03-04T14:52:13.965Z,20.20
2018-03-04T14:54:40.293Z,20.10
2018-03-04T14:57:06.634Z,20.40
2018-03-04T14:59:32.953Z,20.70
2018-03-04T15:01:59.284Z,20.60
2018-03-04T15:04:25.895Z,20.10
2018-03-04T15:06:52.214Z,19.90
2018-03-04T15:09:19.273Z,19.60
2018-03-04T15:11:46.311Z,19.60
2018-03-04T15:14:13.363Z,19.90
2018-03-04T15:16:40.423Z,20.10
2018-03-04T15:19:06.758Z,20.00
2018-03-04T15:21:33.071Z,19.90
2018-03-04T15:24:00.171Z,19.40
2018-03-04T15:26:26.614Z,19.30
2018-03-04T15:28:53.923Z,19.40
2018-03-04T15:31:20.236Z,19.50
2018-03-04T15:33:47.290Z,19.40
2018-03-04T15:36:14.342Z,19.10
2018-03-04T15:38:41.404Z,18.50
2018-03-04T15:41:07.710Z,18.50
2018-03-04T15:43:34.784Z,17.80
2018-03-04T15:46:01.086Z,17.80
2018-03-04T15:48:28.147Z,17.60
2018-03-04T15:50:54.467Z,17.60
2018-03-04T15:53:21.531Z,17.40
2018-03-04T15:55:47.857Z,17.40
2018-03-04T15:58:14.174Z,17.50
2018-03-04T16:00:42.260Z,17.30
2018-03-04T16:03:08.587Z,17.20
2018-03-04T16:05:35.642Z,16.90
2018-03-04T16:08:01.956Z,16.80
2018-03-04T16:10:29.006Z,17.00
2018-03-04T16:12:56.051Z,16.50
2018-03-04T16:15:23.106Z,16.30
2018-03-04T16:17:49.418Z,16.20
2018-03-04T16:20:16.493Z,15.80
2018-03-04T16:22:42.811Z,15.70
2018-03-04T16:25:09.866Z,15.30
2018-03-04T16:27:36.188Z,15.30
2018-03-04T16:30:03.269Z,13.90
2018-03-04T16:32:29.595Z,13.80
2018-03-04T16:34:56.922Z,13.30
2018-03-04T16:37:23.981Z,11.90
2018-03-04T16:39:50.286Z,11.80
2018-03-04T16:42:18.351Z,10.60
2018-03-04T16:44:44.695Z,10.60
2018-03-04T16:47:11.777Z,9.60
2018-03-04T16:49:38.114Z,9.50
2018-03-04T16:52:04.426Z,9.10
2018-03-04T16:54:30.795Z,8.50
2018-03-04T16:56:57.118Z,8.30
2018-03-04T16:59:23.447Z,7.90
2018-03-04T17:01:49.767Z,7.60
2018-03-04T17:04:16.102Z,7.40
2018-03-04T17:06:42.423Z,7.40
2018-03-04T17:09:08.726Z,7.10
2018-03-04T17:11:35.909Z,6.70
2018-03-04T17:14:02.245Z,6.70
2018-03-04T17:16:28.582Z,6.60
2018-03-04T17:18:54.890Z,6.50
2018-03-04T17:21:21.291Z,6.40
2018-03-04T17:23:47.618Z,6.40
2018-03-04T17:26:13.938Z,6.20
2018-03-04T17:28:40.380Z,6.10
2018-03-04T17:31:06.850Z,6.10
2018-03-04T17:33:33.166Z,5.80
2018-03-04T17:35:59.534Z,5.80
2018-03-04T17:38:26.875Z,5.80
2018-03-04T17:40:53.175Z,5.80
2018-03-04T17:43:20.265Z,5.70
2018-03-04T17:45:46.598Z,5.70
2018-03-04T17:48:12.902Z,5.60
2018-03-04T17:50:40.202Z,5.60
2018-03-04T17:53:06.556Z,5.60
2018-03-04T17:55:33.612Z,5.40
2018-03-04T17:58:00.673Z,5.40
2018-03-04T18:00:26.998Z,5.40
2018-03-04T18:02:54.042Z,5.50
2018-03-04T18:05:21.105Z,5.40
2018-03-04T18:07:47.416Z,5.40
2018-03-04T18:10:14.502Z,5.30
2018-03-04T18:12:40.815Z,5.30
2018-03-04T18:15:07.139Z,5.30
2018-03-04T18:17:33.495Z,5.20
2018-03-04T18:19:59.814Z,5.20
2018-03-04T18:22:26.178Z,5.20
2018-03-04T18:24:52.485Z,5.20
2018-03-04T18:27:18.812Z,5.20
2018-03-04T18:29:45.155Z,5.20
2018-03-04T18:32:11.538Z,5.10
2018-03-04T18:34:37.971Z,5.00
2018-03-04T18:37:05.040Z,5.00
2018-03-04T18:39:32.166Z,4.90
2018-03-04T18:41:58.499Z,4.80
2018-03-04T18:44:25.546Z,4.80
2018-03-04T18:46:53.610Z,4.70
2018-03-04T18:49:19.923Z,4.70
2018-03-04T18:51:46.238Z,4.70
2018-03-04T18:54:12.554Z,4.60
2018-03-04T18:56:38.880Z,4.60
2018-03-04T18:59:05.218Z,4.50
2018-03-04T19:01:31.526Z,4.40
2018-03-04T19:03:57.850Z,4.30
2018-03-04T19:06:24.170Z,4.20
2018-03-04T19:08:51.235Z,4.10
2018-03-04T19:11:17.544Z,4.10
2018-03-04T19:13:44.607Z,4.00
2018-03-04T19:16:10.916Z,4.00
2018-03-04T19:18:37.232Z,4.10
2018-03-04T19:21:03.550Z,4.10
2018-03-04T19:23:29.870Z,4.10
2018-03-04T19:25:57.218Z,4.10
2018-03-04T19:28:23.600Z,4.10
2018-03-04T19:30:50.662Z,4.20
2018-03-04T19:33:17.730Z,4.20
2018-03-04T19:35:44.047Z,4.20
2018-03-04T19:38:10.577Z,4.20
2018-03-04T19:40:36.913Z,4.20
2018-03-04T19:43:03.239Z,4.10
2018-03-04T19:45:29.570Z,4.10
2018-03-04T19:47:55.878Z,4.10
2018-03-04T19:50:22.941Z,4.00
2018-03-04T19:52:49.997Z,4.10
2018-03-04T19:55:16.323Z,4.00
2018-03-04T19:57:43.373Z,4.10
2018-03-04T20:00:10.426Z,4.20
2018-03-04T20:02:36.802Z,4.20
2018-03-04T20:05:03.134Z,4.20
2018-03-04T20:07:30.002Z,4.20
2018-03-04T20:09:56.299Z,4.10
2018-03-04T20:12:23.643Z,4.10
2018-03-04T20:14:49.946Z,4.10
2018-03-04T20:17:16.254Z,4.10
2018-03-04T20:19:43.317Z,4.10
2018-03-04T20:22:11.407Z,4.00
2018-03-04T20:24:37.726Z,4.00
2018-03-04T20:27:04.071Z,4.00
2018-03-04T20:29:30.415Z,4.00
2018-03-04T20:31:56.740Z,3.80
2018-03-04T20:34:23.095Z,3.80
2018-03-04T20:36:49.421Z,3.90
2018-03-04T20:39:15.750Z,3.90
2018-03-04T20:41:42.083Z,3.80
2018-03-04T20:44:08.406Z,3.80
2018-03-04T20:46:34.743Z,3.70
2018-03-04T20:49:01.069Z,3.60
2018-03-04T20:51:28.406Z,3.70
2018-03-04T20:53:54.722Z,3.70
2018-03-04T20:56:22.526Z,3.70
2018-03-04T20:58:48.854Z,3.70
2018-03-04T21:01:15.166Z,3.70
2018-03-04T21:03:41.482Z,3.70
2018-03-04T21:06:07.806Z,3.70
2018-03-04T21:08:34.854Z,3.70
2018-03-04T21:11:01.906Z,3.70
2018-03-04T21:13:28.231Z,3.60
2018-03-04T21:15:55.282Z,3.70
2018-03-04T21:18:21.610Z,3.60
2018-03-04T21:20:48.722Z,3.60
2018-03-04T21:23:15.046Z,3.60
2018-03-04T21:25:41.354Z,3.60
2018-03-04T21:28:08.708Z,3.60
2018-03-04T21:30:35.045Z,3.60
2018-03-04T21:33:02.385Z,3.60
2018-03-04T21:35:28.727Z,3.60
2018-03-04T21:37:55.050Z,3.70
2018-03-04T21:40:21.381Z,3.50
2018-03-04T21:42:47.695Z,3.50
2018-03-04T21:45:14.028Z,3.40
2018-03-04T21:47:40.342Z,3.40
2018-03-04T21:50:07.399Z,3.40
2018-03-04T21:52:34.457Z,3.50
2018-03-04T21:55:01.529Z,3.40
2018-03-04T21:57:27.853Z,3.40
2018-03-04T21:59:54.182Z,3.40
2018-03-04T22:02:20.501Z,3.30
2018-03-04T22:04:46.823Z,3.20
2018-03-04T22:07:16.157Z,3.10
2018-03-04T22:09:42.475Z,3.10
2018-03-04T22:12:08.833Z,3.00
2018-03-04T22:14:35.157Z,2.90
2018-03-04T22:17:01.485Z,3.00
2018-03-04T22:19:27.821Z,3.00
2018-03-04T22:21:54.627Z,3.10
2018-03-04T22:24:20.953Z,3.10
2018-03-04T22:26:47.258Z,3.10
2018-03-04T22:29:13.599Z,3.10
2018-03-04T22:31:39.910Z,3.10
2018-03-04T22:34:06.994Z,3.30
2018-03-04T22:36:35.575Z,3.20
2018-03-04T22:41:36.116Z,2.30
2018-03-04T22:44:05.502Z,2.30
2018-03-04T22:46:31.823Z,2.20
2018-03-04T22:49:01.106Z,2.10
2018-03-04T22:51:27.430Z,2.00
2018-03-04T22:53:54.473Z,1.80
2018-03-04T22:56:21.510Z,1.80
2018-03-04T22:58:48.822Z,1.70
2018-03-04T23:01:15.902Z,1.70
2018-03-04T23:03:42.249Z,1.60
2018-03-04T23:06:08.571Z,1.30
2018-03-04T23:08:34.889Z,1.20
2018-03-04T23:11:01.198Z,1.40
2018-03-04T23:13:28.255Z,2.00
2018-03-04T23:15:55.303Z,2.40
2018-03-04T23:18:22.403Z,2.60
2018-03-04T23:20:48.725Z,2.60
2018-03-04T23:23:15.043Z,2.70
2018-03-04T23:25:41.374Z,2.80
2018-03-04T23:28:07.678Z,2.90
2018-03-04T23:30:34.730Z,3.10
2018-03-04T23:33:02.815Z,3.10
2018-03-04T23:35:29.139Z,3.10
2018-03-04T23:37:56.208Z,3.00
2018-03-04T23:40:22.513Z,3.00
2018-03-04T23:42:49.562Z,3.10
2018-03-04T23:45:16.627Z,3.10
2018-03-04T23:47:43.686Z,3.10
2018-03-04T23:50:10.004Z,3.10
2018-03-04T23:52:36.327Z,3.20
2018-03-04T23:55:02.668Z,3.30
2018-03-04T23:57:29.002Z,3.50
2018-03-04T23:59:55.310Z,3.60
